createdAt,value
2023-03-17T00:01:07.017Z,101352.19
2023-03-17T00:04:12.793Z,101340.06
2023-03-17T00:07:17.466Z,101337.94
2023-03-17T00:10:25.176Z,101346.91
2023-03-17T00:13:28.776Z,101343.72
2023-03-17T00:16:34.930Z,101339.94
2023-03-17T00:19:37.946Z,101337.09
2023-03-17T00:22:41.053Z,101332.09
2023-03-17T00:25:45.539Z,101339.50
2023-03-17T00:28:48.517Z,101333.50
2023-03-17T00:31:51.718Z,101333.75
2023-03-17T00:34:58.427Z,101328.38
2023-03-17T00:38:01.461Z,101320.44
2023-03-17T00:41:06.221Z,101326.91
2023-03-17T00:44:09.014Z,101328.38
2023-03-17T00:47:11.999Z,101325.53
2023-03-17T00:50:22.341Z,101327.97
2023-03-17T00:53:24.929Z,101319.50
2023-03-17T00:56:28.183Z,101315.91
2023-03-17T00:59:38.962Z,101311.91
2023-03-17T01:02:42.098Z,101308.94
2023-03-17T01:05:44.579Z,101311.88
2023-03-17T01:08:47.777Z,101305.84
2023-03-17T01:11:50.475Z,101311.09
2023-03-17T01:14:58.369Z,101308.69
2023-03-17T01:18:02.698Z,101306.91
2023-03-17T01:21:05.710Z,101305.25
2023-03-17T01:24:08.591Z,101307.50
2023-03-17T01:27:11.687Z,101309.91
2023-03-17T01:30:23.381Z,101312.09
2023-03-17T01:33:26.811Z,101310.31
2023-03-17T01:36:29.242Z,101320.44
2023-03-17T01:39:33.611Z,101317.22
2023-03-17T01:42:36.354Z,101324.44
2023-03-17T01:46:10.220Z,101323.66
2023-03-17T01:49:48.011Z,101335.38
2023-03-17T01:52:51.591Z,101323.34
2023-03-17T01:55:57.321Z,101330.78
2023-03-17T01:59:06.734Z,101332.38
2023-03-17T02:02:12.882Z,101340.09
2023-03-17T02:05:21.167Z,101337.47
2023-03-17T02:08:23.642Z,101344.72
2023-03-17T02:11:27.074Z,101344.78
2023-03-17T02:14:30.278Z,101361.25
2023-03-17T02:17:32.983Z,101351.19
2023-03-17T02:20:35.715Z,101361.66
2023-03-17T02:23:38.350Z,101360.44
2023-03-17T02:26:45.611Z,101371.13
2023-03-17T02:29:48.595Z,101372.91
2023-03-17T02:32:51.865Z,101377.13
2023-03-17T02:35:58.023Z,101374.72
2023-03-17T02:39:01.619Z,101385.16
2023-03-17T02:42:06.902Z,101377.94
2023-03-17T02:45:15.242Z,101381.75
2023-03-17T02:48:19.159Z,101388.78
2023-03-17T02:51:22.410Z,101378.75
2023-03-17T02:54:25.306Z,101366.88
2023-03-17T02:57:27.977Z,101372.69
2023-03-17T03:00:31.104Z,101386.97
2023-03-17T03:03:33.833Z,101386.56
2023-03-17T03:06:37.727Z,101385.97
2023-03-17T03:09:40.202Z,101378.13
2023-03-17T03:12:43.240Z,101375.31
2023-03-17T03:15:45.949Z,101373.31
2023-03-17T03:18:48.764Z,101373.09
2023-03-17T03:21:51.636Z,101373.91
2023-03-17T03:24:54.679Z,101372.91
2023-03-17T03:27:57.624Z,101368.28
2023-03-17T03:31:00.718Z,101375.50
2023-03-17T03:34:03.336Z,101361.88
2023-03-17T03:37:06.287Z,101367.50
2023-03-17T03:40:10.030Z,101371.31
2023-03-17T03:43:23.007Z,101370.50
2023-03-17T03:46:26.882Z,101377.72
2023-03-17T03:49:29.732Z,101367.69
2023-03-17T03:52:32.691Z,101377.53
2023-03-17T03:55:35.478Z,101377.75
2023-03-17T03:58:38.118Z,101369.28
2023-03-17T04:01:41.708Z,101372.72
2023-03-17T04:04:44.752Z,101373.91
2023-03-17T04:07:48.284Z,101371.69
2023-03-17T04:10:50.737Z,101368.06
2023-03-17T04:13:53.661Z,101380.94
2023-03-17T04:16:56.716Z,101373.28
2023-03-17T04:19:59.622Z,101379.09
2023-03-17T04:23:02.631Z,101381.13
2023-03-17T04:26:05.630Z,101380.56
2023-03-17T04:29:09.317Z,101383.34
2023-03-17T04:32:13.799Z,101382.94
2023-03-17T04:35:19.868Z,101386.94
2023-03-17T04:38:22.773Z,101396.56
2023-03-17T04:41:25.256Z,101393.94
2023-03-17T04:44:28.319Z,101392.16
2023-03-17T04:47:31.105Z,101398.59
2023-03-17T04:50:34.837Z,101397.97
2023-03-17T04:53:37.579Z,101404.19
2023-03-17T04:56:40.798Z,101415.47
2023-03-17T04:59:43.379Z,101408.66
2023-03-17T05:02:46.315Z,101411.06
2023-03-17T05:05:50.731Z,101417.13
2023-03-17T05:08:53.538Z,101417.63
2023-03-17T05:11:56.543Z,101417.06
2023-03-17T05:14:59.272Z,101415.53
2023-03-17T05:18:04.579Z,101421.38
2023-03-17T05:21:07.954Z,101418.09
2023-03-17T05:24:13.480Z,101420.25
2023-03-17T05:27:16.219Z,101422.63
2023-03-17T05:30:19.001Z,101431.97
2023-03-17T05:33:22.080Z,101433.56
2023-03-17T05:36:25.046Z,101443.84
2023-03-17T05:39:28.272Z,101436.28
2023-03-17T05:42:30.926Z,101434.19
2023-03-17T05:45:34.115Z,101440.94
2023-03-17T05:48:37.142Z,101439.44
2023-03-17T05:51:39.865Z,101439.81
2023-03-17T05:54:42.852Z,101440.53
2023-03-17T05:57:45.783Z,101445.28
2023-03-17T06:00:48.539Z,101441.56
2023-03-17T06:03:51.479Z,101444.44
2023-03-17T06:06:54.194Z,101443.81
2023-03-17T06:09:57.102Z,101451.09
2023-03-17T06:13:03.280Z,101457.06
2023-03-17T06:16:06.936Z,101458.63
2023-03-17T06:19:09.623Z,101451.63
2023-03-17T06:22:12.370Z,101445.03
2023-03-17T06:25:15.560Z,101460.00
2023-03-17T06:28:18.665Z,101457.69
2023-03-17T06:31:22.217Z,101467.44
2023-03-17T06:34:25.973Z,101451.16
2023-03-17T06:37:29.763Z,101463.31
2023-03-17T06:40:32.360Z,101476.84
2023-03-17T06:43:35.381Z,101453.31
2023-03-17T06:46:38.102Z,101448.41
2023-03-17T06:49:41.164Z,101454.06
2023-03-17T06:52:46.637Z,101454.91
2023-03-17T06:55:49.868Z,101456.28
2023-03-17T06:58:52.905Z,101459.22
2023-03-17T07:01:55.483Z,101469.31
2023-03-17T07:04:58.325Z,101465.84
2023-03-17T07:08:01.227Z,101466.63
2023-03-17T07:11:04.674Z,101466.88
2023-03-17T07:14:07.999Z,101463.38
2023-03-17T07:17:12.325Z,101466.25
2023-03-17T07:20:15.009Z,101478.47
2023-03-17T07:23:21.342Z,101479.91
2023-03-17T07:26:24.818Z,101475.00
2023-03-17T07:29:28.544Z,101467.53
2023-03-17T07:32:32.356Z,101465.53
2023-03-17T07:35:35.067Z,101462.03
2023-03-17T07:38:37.739Z,101458.88
2023-03-17T07:41:41.367Z,101467.78
2023-03-17T07:44:46.298Z,101476.00
2023-03-17T07:47:48.941Z,101476.84
2023-03-17T07:50:51.914Z,101490.03
2023-03-17T07:54:03.390Z,101492.63
2023-03-17T07:57:06.588Z,101489.75
2023-03-17T08:00:10.642Z,101479.63
2023-03-17T08:03:16.024Z,101472.41
2023-03-17T08:06:19.320Z,101465.84
2023-03-17T08:09:25.069Z,101465.63
2023-03-17T08:12:28.064Z,101460.19
2023-03-17T08:15:31.330Z,101464.41
2023-03-17T08:18:34.295Z,101466.06
2023-03-17T08:21:37.158Z,101472.50
2023-03-17T08:24:42.911Z,101477.28
2023-03-17T08:27:45.710Z,101471.03
2023-03-17T08:30:50.557Z,101476.72
2023-03-17T08:33:54.695Z,101474.53
2023-03-17T08:36:57.374Z,101465.91
2023-03-17T08:40:01.274Z,101473.78
2023-03-17T08:43:04.404Z,101467.31
2023-03-17T08:46:24.374Z,101462.63
2023-03-17T08:49:27.565Z,101464.63
2023-03-17T08:52:30.106Z,101459.53
2023-03-17T08:55:32.731Z,101462.91
2023-03-17T08:58:37.256Z,101463.53
2023-03-17T09:01:40.371Z,101462.09
2023-03-17T09:04:43.606Z,101464.44
2023-03-17T09:07:46.265Z,101464.06
2023-03-17T09:10:49.197Z,101464.59
2023-03-17T09:13:52.835Z,101463.84
2023-03-17T09:16:56.759Z,101472.88
2023-03-17T09:19:59.728Z,101465.69
2023-03-17T09:23:08.073Z,101471.63
2023-03-17T09:26:12.365Z,101471.53
2023-03-17T09:29:15.486Z,101463.31
2023-03-17T09:32:18.071Z,101455.09
2023-03-17T09:35:20.823Z,101455.63
2023-03-17T09:38:25.736Z,101462.78
2023-03-17T09:41:46.303Z,101454.91
2023-03-17T09:44:51.923Z,101452.44
2023-03-17T09:48:22.770Z,101441.13
2023-03-17T09:51:25.845Z,101453.16
2023-03-17T09:54:33.355Z,101436.78
2023-03-17T09:57:38.346Z,101439.03
2023-03-17T10:00:41.067Z,101433.38
2023-03-17T10:03:45.078Z,101426.81
2023-03-17T10:06:50.216Z,101430.94
2023-03-17T10:10:03.239Z,101437.88
2023-03-17T10:13:28.785Z,101428.06
2023-03-17T10:16:51.407Z,101433.00
2023-03-17T10:20:02.610Z,101436.97
2023-03-17T10:23:08.366Z,101424.41
2023-03-17T10:26:43.010Z,101420.72
2023-03-17T10:29:48.484Z,101412.06
2023-03-17T10:32:53.023Z,101401.13
2023-03-17T10:35:55.638Z,101398.53
2023-03-17T10:38:58.931Z,101401.94
2023-03-17T10:42:15.587Z,101389.25
2023-03-17T10:45:30.149Z,101391.91
2023-03-17T10:48:37.193Z,101384.34
2023-03-17T10:51:41.507Z,101376.91
2023-03-17T10:54:47.973Z,101377.38
2023-03-17T10:58:02.902Z,101379.38
2023-03-17T11:01:16.225Z,101373.22
2023-03-17T11:04:42.622Z,101377.47
2023-03-17T11:07:45.414Z,101375.34
2023-03-17T11:10:55.049Z,101361.88
2023-03-17T11:14:03.988Z,101364.25
2023-03-17T11:17:38.312Z,101347.13
2023-03-17T11:20:48.320Z,101343.16
2023-03-17T11:24:14.210Z,101345.63
2023-03-17T11:27:35.942Z,101334.19
2023-03-17T11:30:47.700Z,101332.72
2023-03-17T11:34:01.334Z,101323.50
2023-03-17T11:37:42.743Z,101324.16
2023-03-17T11:41:07.042Z,101317.84
2023-03-17T11:44:35.985Z,101306.56
2023-03-17T11:47:53.956Z,101306.50
2023-03-17T11:51:21.837Z,101290.16
2023-03-17T11:54:40.083Z,101286.56
2023-03-17T11:57:56.221Z,101281.81
2023-03-17T12:01:01.619Z,101282.72
2023-03-17T12:04:20.466Z,101279.91
2023-03-17T12:07:45.262Z,101287.13
2023-03-17T12:10:54.640Z,101276.78
2023-03-17T12:14:05.042Z,101265.97
2023-03-17T12:17:21.900Z,101265.56
2023-03-17T12:20:36.733Z,101262.72
2023-03-17T12:23:48.167Z,101251.94
2023-03-17T12:26:58.008Z,101252.06
2023-03-17T12:30:08.031Z,101245.44
2023-03-17T12:33:23.006Z,101236.78
2023-03-17T12:36:26.266Z,101245.19
2023-03-17T12:39:34.962Z,101248.00
2023-03-17T12:43:06.384Z,101242.19
2023-03-17T12:46:33.048Z,101239.69
2023-03-17T12:49:53.699Z,101248.16
2023-03-17T12:53:29.844Z,101236.44
2023-03-17T12:56:34.359Z,101229.91
2023-03-17T12:59:37.470Z,101223.88
2023-03-17T13:02:41.121Z,101222.81
2023-03-17T13:06:05.005Z,101214.69
2023-03-17T13:09:28.548Z,101207.28
2023-03-17T13:12:41.042Z,101208.16
2023-03-17T13:15:43.636Z,101194.81
2023-03-17T13:18:49.483Z,101189.91
2023-03-17T13:22:17.960Z,101184.91
2023-03-17T13:25:49.832Z,101187.34
2023-03-17T13:28:52.778Z,101185.47
2023-03-17T13:32:33.876Z,101172.31
2023-03-17T13:35:46.287Z,101170.81
2023-03-17T13:39:25.004Z,101170.94
2023-03-17T13:42:49.672Z,101166.59
2023-03-17T13:45:52.223Z,101167.00
2023-03-17T13:48:56.559Z,101167.88
2023-03-17T13:52:31.013Z,101162.41
2023-03-17T13:56:03.296Z,101148.44
2023-03-17T13:59:13.609Z,101149.75
2023-03-17T14:02:21.776Z,101153.50
2023-03-17T14:05:30.344Z,101151.72
2023-03-17T14:08:38.352Z,101148.63
2023-03-17T14:11:45.550Z,101140.34
2023-03-17T14:14:53.284Z,101143.88
2023-03-17T14:18:03.082Z,101136.28
2023-03-17T14:21:19.326Z,101134.97
2023-03-17T14:24:30.622Z,101128.94
2023-03-17T14:27:35.574Z,101126.06
2023-03-17T14:30:39.042Z,101133.16
2023-03-17T14:33:41.912Z,101130.00
2023-03-17T14:36:44.790Z,101125.25
2023-03-17T14:39:55.086Z,101125.97
2023-03-17T14:42:57.742Z,101119.81
2023-03-17T14:46:02.981Z,101117.84
2023-03-17T14:49:21.225Z,101125.13
2023-03-17T14:52:27.964Z,101122.84
2023-03-17T14:55:37.878Z,101121.63
2023-03-17T14:58:46.227Z,101119.75
2023-03-17T15:01:53.064Z,101105.53
2023-03-17T15:05:04.444Z,101104.75
2023-03-17T15:08:40.997Z,101105.94
2023-03-17T15:11:44.877Z,101102.84
2023-03-17T15:14:52.283Z,101105.75
2023-03-17T15:17:57.787Z,101099.00
2023-03-17T15:21:01.126Z,101103.25
2023-03-17T15:24:23.480Z,101095.75
2023-03-17T15:27:26.872Z,101096.41
2023-03-17T15:30:44.334Z,101095.41
2023-03-17T15:33:49.046Z,101095.47
2023-03-17T15:36:52.026Z,101093.69
2023-03-17T15:39:55.885Z,101100.66
2023-03-17T15:43:00.657Z,101099.66
2023-03-17T15:46:07.233Z,101095.75
2023-03-17T15:49:12.543Z,101093.91
2023-03-17T15:52:27.282Z,101091.38
2023-03-17T15:55:31.522Z,101090.78
2023-03-17T15:58:35.034Z,101105.53
2023-03-17T16:01:39.066Z,101100.56
2023-03-17T16:04:41.546Z,101100.38
2023-03-17T16:07:45.036Z,101098.38
2023-03-17T16:10:48.007Z,101103.00
2023-03-17T16:13:51.105Z,101104.13
2023-03-17T16:16:53.737Z,101106.41
2023-03-17T16:19:57.286Z,101103.84
2023-03-17T16:23:08.136Z,101106.31
2023-03-17T16:26:16.015Z,101103.28
2023-03-17T16:29:20.972Z,101099.41
2023-03-17T16:32:23.846Z,101103.75
2023-03-17T16:35:26.565Z,101107.41
2023-03-17T16:38:32.047Z,101100.25
2023-03-17T16:41:35.362Z,101097.94
2023-03-17T16:44:39.037Z,101104.66
2023-03-17T16:47:41.489Z,101100.13
2023-03-17T16:50:44.599Z,101105.19
2023-03-17T16:53:47.356Z,101095.41
2023-03-17T16:56:49.976Z,101103.88
2023-03-17T16:59:52.896Z,101105.78
2023-03-17T17:02:56.583Z,101106.34
2023-03-17T17:05:59.171Z,101102.91
2023-03-17T17:09:02.357Z,101101.84
2023-03-17T17:12:05.258Z,101103.94
2023-03-17T17:15:09.025Z,101096.00
2023-03-17T17:18:18.137Z,101099.19
2023-03-17T17:21:21.340Z,101100.78
2023-03-17T17:24:24.150Z,101102.84
2023-03-17T17:27:27.214Z,101097.81
2023-03-17T17:30:31.244Z,101102.59
2023-03-17T17:33:35.705Z,101099.03
2023-03-17T17:36:38.976Z,101112.94
2023-03-17T17:39:42.575Z,101109.56
2023-03-17T17:42:48.987Z,101101.44
2023-03-17T17:45:53.058Z,101107.06
2023-03-17T17:48:56.179Z,101107.75
2023-03-17T17:51:59.039Z,101113.06
2023-03-17T17:55:02.139Z,101115.09
2023-03-17T17:58:05.263Z,101107.72
2023-03-17T18:01:08.269Z,101114.84
2023-03-17T18:04:13.018Z,101109.38
2023-03-17T18:07:15.767Z,101109.94
2023-03-17T18:10:22.805Z,101110.75
2023-03-17T18:13:25.707Z,101120.72
2023-03-17T18:16:29.747Z,101114.84
2023-03-17T18:19:32.483Z,101106.91
2023-03-17T18:22:36.398Z,101111.75
2023-03-17T18:25:39.215Z,101110.22
2023-03-17T18:28:42.584Z,101112.09
2023-03-17T18:31:53.303Z,101112.94
2023-03-17T18:35:00.497Z,101108.88
2023-03-17T18:38:03.521Z,101110.13
2023-03-17T18:41:08.148Z,101107.59
2023-03-17T18:44:12.122Z,101109.56
2023-03-17T18:47:16.641Z,101107.53
2023-03-17T18:50:22.029Z,101099.59
2023-03-17T18:53:25.209Z,101096.56
2023-03-17T18:56:29.679Z,101090.19
2023-03-17T18:59:32.594Z,101092.19
2023-03-17T19:02:36.437Z,101093.91
2023-03-17T19:05:39.746Z,101090.09
2023-03-17T19:08:43.084Z,101096.03
2023-03-17T19:11:46.433Z,101094.34
2023-03-17T19:14:48.903Z,101089.16
2023-03-17T19:17:52.321Z,101094.59
2023-03-17T19:20:56.568Z,101086.56
2023-03-17T19:24:02.265Z,101090.50
2023-03-17T19:27:05.249Z,101083.47
2023-03-17T19:30:09.097Z,101089.06
2023-03-17T19:33:13.412Z,101084.44
2023-03-17T19:36:17.190Z,101092.53
2023-03-17T19:39:22.149Z,101079.69
2023-03-17T19:42:25.733Z,101087.59
2023-03-17T19:45:28.414Z,101085.63
2023-03-17T19:48:31.597Z,101076.72
2023-03-17T19:51:34.778Z,101080.53
2023-03-17T19:54:38.499Z,101077.16
2023-03-17T19:57:41.965Z,101080.91
2023-03-17T20:00:44.887Z,101070.53
2023-03-17T20:03:47.578Z,101072.75
2023-03-17T20:06:55.960Z,101062.69
2023-03-17T20:09:59.510Z,101068.44
2023-03-17T20:13:03.809Z,101072.13
2023-03-17T20:16:08.607Z,101070.53
2023-03-17T20:19:12.569Z,101078.03
2023-03-17T20:22:15.918Z,101075.31
2023-03-17T20:25:19.177Z,101070.66
2023-03-17T20:28:21.866Z,101070.38
2023-03-17T20:31:25.653Z,101071.53
2023-03-17T20:34:28.749Z,101066.75
2023-03-17T20:37:32.047Z,101074.84
2023-03-17T20:40:35.330Z,101070.31
2023-03-17T20:43:38.667Z,101073.66
2023-03-17T20:46:42.623Z,101081.66
2023-03-17T20:49:47.764Z,101081.56
2023-03-17T20:52:51.133Z,101081.78
2023-03-17T20:55:55.435Z,101074.19
2023-03-17T20:58:58.649Z,101080.13
2023-03-17T21:02:02.642Z,101077.88
2023-03-17T21:05:07.469Z,101072.75
2023-03-17T21:08:10.595Z,101076.88
2023-03-17T21:11:19.138Z,101076.44
2023-03-17T21:14:22.173Z,101082.72
2023-03-17T21:17:25.013Z,101088.31
2023-03-17T21:20:27.986Z,101085.91
2023-03-17T21:23:30.429Z,101085.66
2023-03-17T21:26:33.638Z,101086.38
2023-03-17T21:29:37.143Z,101095.97
2023-03-17T21:32:42.127Z,101099.03
2023-03-17T21:35:45.020Z,101091.84
2023-03-17T21:38:48.132Z,101097.44
2023-03-17T21:41:51.456Z,101096.56
2023-03-17T21:44:54.746Z,101094.00
2023-03-17T21:47:57.361Z,101100.63
2023-03-17T21:51:00.520Z,101086.38
2023-03-17T21:54:04.104Z,101091.75
2023-03-17T21:57:07.050Z,101096.88
2023-03-17T22:00:10.457Z,101091.84
2023-03-17T22:03:16.227Z,101092.41
2023-03-17T22:06:20.368Z,101093.94
2023-03-17T22:09:23.107Z,101090.72
2023-03-17T22:12:26.082Z,101088.31
2023-03-17T22:15:29.348Z,101086.59
2023-03-17T22:18:32.626Z,101078.97
2023-03-17T22:21:35.486Z,101082.03
2023-03-17T22:24:38.303Z,101080.56
2023-03-17T22:27:40.995Z,101072.13
2023-03-17T22:30:43.848Z,101076.75
2023-03-17T22:33:47.397Z,101076.03
2023-03-17T22:36:50.518Z,101071.44
2023-03-17T22:39:54.348Z,101068.88
2023-03-17T22:42:58.161Z,101066.97
2023-03-17T22:46:01.296Z,101066.63
2023-03-17T22:49:04.746Z,101063.56
2023-03-17T22:52:07.796Z,101066.88
2023-03-17T22:55:10.822Z,101067.28
2023-03-17T22:58:13.578Z,101071.50
2023-03-17T23:01:17.527Z,101062.47
2023-03-17T23:04:20.307Z,101073.91
2023-03-17T23:07:23.145Z,101067.06
2023-03-17T23:10:26.909Z,101066.41
2023-03-17T23:13:30.453Z,101075.22
2023-03-17T23:16:33.557Z,101067.16
2023-03-17T23:19:36.312Z,101067.16
2023-03-17T23:22:39.417Z,101071.25
2023-03-17T23:25:42.075Z,101070.41
2023-03-17T23:28:46.423Z,101067.81
2023-03-17T23:31:49.335Z,101067.09
2023-03-17T23:34:52.273Z,101071.06
2023-03-17T23:37:54.891Z,101068.94
2023-03-17T23:40:58.185Z,101066.53
2023-03-17T23:44:01.151Z,101062.31
2023-03-17T23:47:04.539Z,101066.44
2023-03-17T23:50:07.747Z,101061.19
2023-03-17T23:53:11.741Z,101061.69
2023-03-17T23:56:14.810Z,101055.28
2023-03-17T23:59:17.952Z,101056.03
